Pugwash, Canada
Current Conditions -  °F | °C
As of 10:00 AM on Thursday 27 Nov 2014 (Local Time) from CYYG Reporting Station
Light Snow Light Snow  
Wind Chill: 20°   Ceiling: 600
Heat Index: 34°   Visibility: 2.5mi
Dew Point: 32°   Wind: 30mph
Humidity: 93%   Direction: 30°NNE
Pressure: 29.36"   Gusts: 36mph
Location:  45.85°N, 63.65°W
Report Text: CYYG 271400Z 03026G31KT 2 1/2SM -RASN BR BKN006 OVC012 01/00 A2936 RMK SF6SC2 SLP944
Loading
Personal Weather Stations






























Interactive Weather Map New forecast layout! Learn more

10-Day Weather Forecast

Advertisements
Track Severe Weather on mobile